createdAt,value
2019-05-02T00:01:57.155Z,29.03
2019-05-02T00:04:26.783Z,27.53
2019-05-02T00:07:09.719Z,25.47
2019-05-02T00:09:47.437Z,28.00
2019-05-02T00:12:16.110Z,23.93
2019-05-02T00:14:45.696Z,26.37
2019-05-02T00:17:20.353Z,26.57
2019-05-02T00:19:49.850Z,25.43
2019-05-02T00:22:20.051Z,26.47
2019-05-02T00:24:49.836Z,25.77
2019-05-02T00:27:19.326Z,27.60
2019-05-02T00:29:48.906Z,29.57
2019-05-02T00:32:22.245Z,25.33
2019-05-02T00:34:49.535Z,26.03
2019-05-02T00:37:24.384Z,27.03
2019-05-02T00:39:50.535Z,28.37
2019-05-02T00:42:22.594Z,23.97
2019-05-02T00:44:51.380Z,26.17
2019-05-02T00:47:31.009Z,26.80
2019-05-02T00:50:00.427Z,25.27
2019-05-02T00:52:32.878Z,26.10
2019-05-02T00:55:01.093Z,29.17
2019-05-02T00:57:33.537Z,27.03
2019-05-02T01:00:03.675Z,25.43
2019-05-02T01:02:35.852Z,27.23
2019-05-02T01:05:06.752Z,29.80
2019-05-02T01:07:36.192Z,28.43
2019-05-02T01:10:07.179Z,28.40
2019-05-02T01:12:40.014Z,29.23
2019-05-02T01:15:08.681Z,25.90
2019-05-02T01:17:39.243Z,26.43
2019-05-02T01:20:09.233Z,25.83
2019-05-02T01:22:38.723Z,27.93
2019-05-02T01:25:14.940Z,25.20
2019-05-02T01:27:44.692Z,25.00
2019-05-02T01:30:25.487Z,27.03
2019-05-02T01:33:06.448Z,24.60
2019-05-02T01:35:50.992Z,28.53
2019-05-02T01:38:26.561Z,27.63
2019-05-02T01:40:55.918Z,25.80
2019-05-02T01:43:27.707Z,24.33
2019-05-02T01:45:57.281Z,26.97
2019-05-02T01:48:26.858Z,24.07
2019-05-02T01:50:56.304Z,26.33
2019-05-02T01:53:29.238Z,24.70
2019-05-02T01:55:59.186Z,28.00
2019-05-02T01:58:28.218Z,26.57
2019-05-02T02:00:57.651Z,29.13
2019-05-02T02:03:27.285Z,27.70
2019-05-02T02:05:56.822Z,26.37
2019-05-02T02:08:27.224Z,26.77
2019-05-02T02:10:58.244Z,25.47
2019-05-02T02:13:31.374Z,26.13
2019-05-02T02:16:00.224Z,23.00
2019-05-02T02:18:31.995Z,24.20
2019-05-02T02:21:09.351Z,23.57
2019-05-02T02:23:49.670Z,25.63
2019-05-02T02:26:19.043Z,22.73
2019-05-02T02:28:48.554Z,22.30
2019-05-02T02:31:19.764Z,25.00
2019-05-02T02:33:51.485Z,22.40
2019-05-02T02:36:30.214Z,24.13
2019-05-02T02:38:57.585Z,26.20
2019-05-02T02:41:27.090Z,23.47
2019-05-02T02:44:02.976Z,23.97
2019-05-02T02:46:38.099Z,23.60
2019-05-02T02:49:05.477Z,24.93
2019-05-02T02:51:34.997Z,24.77
2019-05-02T02:54:05.835Z,24.90
2019-05-02T02:56:40.433Z,27.50
2019-05-02T02:59:06.837Z,26.00
2019-05-02T03:01:36.286Z,25.63
2019-05-02T03:04:09.491Z,27.10
2019-05-02T03:06:38.352Z,26.73
2019-05-02T03:09:08.689Z,28.60
2019-05-02T03:11:39.911Z,30.90
2019-05-02T03:14:11.064Z,27.83
2019-05-02T03:16:47.236Z,28.23
2019-05-02T03:19:14.774Z,29.47
2019-05-02T03:22:01.030Z,32.13
2019-05-02T03:24:27.311Z,29.60
2019-05-02T03:26:58.361Z,31.27
2019-05-02T03:29:39.706Z,27.97
2019-05-02T03:32:14.274Z,26.87
2019-05-02T03:34:45.298Z,28.87
2019-05-02T03:37:09.597Z,31.40
2019-05-02T03:39:34.768Z,31.10
2019-05-02T03:42:05.096Z,28.33
2019-05-02T03:44:35.719Z,31.10
2019-05-02T03:47:05.364Z,28.67
2019-05-02T03:49:41.045Z,30.63
2019-05-02T03:52:06.259Z,29.43
2019-05-02T03:54:49.084Z,29.70
2019-05-02T03:57:07.567Z,28.83
2019-05-02T03:59:39.722Z,28.33
2019-05-02T04:02:14.148Z,28.23
2019-05-02T04:04:40.364Z,25.73
2019-05-02T04:07:10.188Z,32.23
2019-05-02T04:09:42.353Z,31.07
2019-05-02T04:12:18.938Z,29.60
2019-05-02T04:14:43.369Z,32.50
2019-05-02T04:17:13.040Z,28.60
2019-05-02T04:19:43.612Z,30.20
2019-05-02T04:22:14.515Z,27.60
2019-05-02T04:24:47.809Z,32.97
2019-05-02T04:27:15.789Z,25.70
2019-05-02T04:29:45.207Z,29.80
2019-05-02T04:32:14.910Z,28.83
2019-05-02T04:34:48.960Z,26.90
2019-05-02T04:37:15.535Z,25.50
2019-05-02T04:39:44.981Z,27.30
2019-05-02T04:42:19.470Z,26.80
2019-05-02T04:45:08.785Z,28.10
2019-05-02T04:47:21.335Z,28.47
2019-05-02T04:49:52.071Z,27.57
2019-05-02T04:52:21.831Z,28.67
2019-05-02T04:54:51.284Z,29.70
2019-05-02T04:57:26.289Z,28.27
2019-05-02T05:00:04.982Z,28.20
2019-05-02T05:02:30.831Z,28.27
2019-05-02T05:04:54.141Z,26.73
2019-05-02T05:07:24.251Z,31.47
2019-05-02T05:10:02.660Z,28.77
2019-05-02T05:12:24.808Z,30.27
2019-05-02T05:14:54.232Z,31.10
2019-05-02T05:17:25.015Z,32.33
2019-05-02T05:19:54.790Z,32.30
2019-05-02T05:22:24.236Z,29.43
2019-05-02T05:25:12.282Z,32.57
2019-05-02T05:27:41.540Z,34.00
2019-05-02T05:30:15.425Z,31.70
2019-05-02T05:32:42.239Z,31.80
2019-05-02T05:35:14.727Z,31.13
2019-05-02T05:37:51.419Z,29.43
2019-05-02T05:40:17.661Z,33.00
2019-05-02T05:42:48.079Z,37.57
2019-05-02T05:45:17.757Z,35.57
2019-05-02T05:47:47.888Z,32.90
2019-05-02T05:50:17.774Z,33.37
2019-05-02T05:52:47.355Z,32.17
2019-05-02T05:55:20.348Z,34.23
2019-05-02T05:57:50.130Z,34.60
2019-05-02T06:00:22.985Z,34.90
2019-05-02T06:02:56.089Z,37.27
2019-05-02T06:05:21.519Z,35.17
2019-05-02T06:07:50.933Z,36.30
2019-05-02T06:10:20.389Z,37.30
2019-05-02T06:12:49.865Z,30.93
2019-05-02T06:15:19.447Z,32.63
2019-05-02T06:17:48.939Z,31.50
2019-05-02T06:20:18.521Z,30.67
2019-05-02T06:22:47.941Z,35.20
2019-05-02T06:25:17.534Z,35.40
2019-05-02T06:27:46.957Z,38.40
2019-05-02T06:30:17.484Z,34.13
2019-05-02T06:32:50.122Z,34.07
2019-05-02T06:35:21.250Z,36.37
2019-05-02T06:37:50.112Z,34.77
2019-05-02T06:40:20.442Z,37.90
2019-05-02T06:42:49.955Z,35.03
2019-05-02T06:45:19.619Z,34.27
2019-05-02T06:47:49.134Z,37.70
2019-05-02T06:50:18.687Z,32.93
2019-05-02T06:52:48.226Z,33.97
2019-05-02T06:55:17.808Z,48.03
2019-05-02T06:57:47.469Z,33.10
2019-05-02T07:00:17.526Z,31.17
2019-05-02T07:02:47.082Z,27.43
2019-05-02T07:05:16.651Z,37.20
2019-05-02T07:07:46.199Z,30.27
2019-05-02T07:10:19.970Z,29.53
2019-05-02T07:12:51.185Z,29.53
2019-05-02T07:15:25.755Z,32.23
2019-05-02T07:17:59.084Z,34.50
2019-05-02T07:20:28.527Z,28.70
2019-05-02T07:22:59.582Z,34.50
2019-05-02T07:25:29.000Z,36.23
2019-05-02T07:27:58.512Z,33.60
2019-05-02T07:30:30.116Z,33.30
2019-05-02T07:33:01.149Z,28.23
2019-05-02T07:35:30.397Z,34.97
2019-05-02T07:37:59.836Z,33.17
2019-05-02T07:40:29.349Z,30.53
2019-05-02T07:42:58.778Z,30.40
2019-05-02T07:45:28.299Z,34.47
2019-05-02T07:47:57.747Z,35.23
2019-05-02T07:50:27.260Z,29.83
2019-05-02T07:52:56.750Z,32.73
2019-05-02T07:55:30.598Z,31.93
2019-05-02T07:58:02.035Z,30.00
2019-05-02T08:00:32.079Z,32.17
2019-05-02T08:03:04.986Z,35.07
2019-05-02T08:05:33.487Z,33.27
2019-05-02T08:08:03.011Z,34.90
2019-05-02T08:10:32.506Z,29.97
2019-05-02T08:13:02.088Z,33.07
2019-05-02T08:15:31.675Z,37.97
2019-05-02T08:18:01.090Z,31.70
2019-05-02T08:20:30.623Z,33.17
2019-05-02T08:23:00.159Z,32.67
2019-05-02T08:25:29.608Z,30.90
2019-05-02T08:28:15.815Z,35.27
2019-05-02T08:30:45.365Z,33.60
2019-05-02T08:33:14.893Z,37.47
2019-05-02T08:35:44.869Z,32.37
2019-05-02T08:38:17.798Z,35.93
2019-05-02T08:40:47.866Z,33.20
2019-05-02T08:43:16.701Z,36.80
2019-05-02T08:45:46.124Z,39.20
2019-05-02T08:48:15.573Z,40.87
2019-05-02T08:50:45.120Z,33.63
2019-05-02T08:53:19.728Z,35.13
2019-05-02T08:55:46.716Z,35.17
2019-05-02T08:58:16.307Z,34.50
2019-05-02T09:00:47.388Z,35.27
2019-05-02T09:03:17.044Z,37.27
2019-05-02T09:05:47.468Z,34.10
2019-05-02T09:08:17.178Z,37.10
2019-05-02T09:10:46.767Z,32.90
2019-05-02T09:13:23.633Z,34.00
2019-05-02T09:15:51.308Z,35.23
2019-05-02T09:18:18.594Z,33.53
2019-05-02T09:20:52.639Z,35.83
2019-05-02T09:23:19.162Z,34.90
2019-05-02T09:25:48.596Z,32.53
2019-05-02T09:28:22.493Z,35.17
2019-05-02T09:31:05.085Z,35.77
2019-05-02T09:33:32.245Z,34.77
2019-05-02T09:36:02.425Z,40.63
2019-05-02T09:38:32.849Z,33.27
2019-05-02T09:41:15.345Z,32.07
2019-05-02T09:43:38.977Z,39.50
2019-05-02T09:46:07.316Z,33.77
2019-05-02T09:48:36.569Z,36.37
2019-05-02T09:51:12.523Z,36.77
2019-05-02T09:53:37.270Z,36.47
2019-05-02T09:56:06.835Z,36.80
2019-05-02T09:58:36.351Z,31.97
2019-05-02T10:01:11.859Z,37.43
2019-05-02T10:03:42.385Z,34.07
2019-05-02T10:06:13.894Z,36.33
2019-05-02T10:08:46.276Z,34.47
2019-05-02T10:11:16.854Z,35.20
2019-05-02T10:13:45.561Z,36.17
2019-05-02T10:16:18.010Z,36.23
2019-05-02T10:18:46.203Z,35.30
2019-05-02T10:21:17.170Z,39.37
2019-05-02T10:23:51.826Z,33.07
2019-05-02T10:26:20.242Z,33.53
2019-05-02T10:28:50.762Z,36.40
2019-05-02T10:31:21.854Z,36.53
2019-05-02T10:33:52.951Z,35.67
2019-05-02T10:36:23.967Z,32.97
2019-05-02T10:38:58.852Z,31.57
2019-05-02T10:41:24.780Z,33.80
2019-05-02T10:43:57.748Z,32.90
2019-05-02T10:46:27.783Z,34.73
2019-05-02T10:49:18.259Z,31.43
2019-05-02T10:51:49.608Z,34.87
2019-05-02T10:54:20.606Z,34.37
2019-05-02T10:56:51.847Z,34.73
2019-05-02T10:59:22.108Z,33.53
2019-05-02T11:02:09.968Z,36.80
2019-05-02T11:04:42.095Z,31.70
2019-05-02T11:07:12.033Z,30.57
2019-05-02T11:09:42.033Z,29.97
2019-05-02T11:12:16.459Z,29.60
2019-05-02T11:14:46.096Z,32.23
2019-05-02T11:17:20.165Z,34.27
2019-05-02T11:20:01.898Z,32.17
2019-05-02T11:22:32.688Z,29.47
2019-05-02T11:25:02.180Z,31.67
2019-05-02T11:27:32.856Z,31.60
2019-05-02T11:30:02.791Z,32.13
2019-05-02T11:32:33.026Z,35.33
2019-05-02T11:35:03.077Z,33.37
2019-05-02T11:37:32.927Z,33.63
2019-05-02T11:40:05.778Z,33.87
2019-05-02T11:42:33.878Z,36.30
2019-05-02T11:45:04.243Z,33.63
2019-05-02T11:47:33.713Z,34.10
2019-05-02T11:50:03.478Z,34.37
2019-05-02T11:52:37.318Z,34.50
2019-05-02T11:55:06.064Z,37.23
2019-05-02T11:57:35.531Z,36.30
2019-05-02T12:00:09.073Z,33.97
2019-05-02T12:02:41.768Z,35.00
2019-05-02T12:05:14.099Z,37.67
2019-05-02T12:07:43.560Z,36.73
2019-05-02T12:10:13.222Z,34.50
2019-05-02T12:12:43.757Z,35.63
2019-05-02T12:15:13.388Z,31.23
2019-05-02T12:17:43.109Z,30.77
2019-05-02T12:20:12.825Z,32.23
2019-05-02T12:22:42.423Z,30.20
2019-05-02T12:25:12.893Z,34.03
2019-05-02T12:27:43.573Z,33.03
2019-05-02T12:30:13.835Z,35.20
2019-05-02T12:32:43.370Z,34.67
2019-05-02T12:35:13.083Z,33.60
2019-05-02T12:37:42.588Z,32.53
2019-05-02T12:40:12.598Z,31.97
2019-05-02T12:42:42.099Z,33.17
2019-05-02T12:45:12.324Z,33.37
2019-05-02T12:47:42.811Z,81.77
2019-05-02T12:50:12.801Z,34.00
2019-05-02T12:52:42.882Z,34.77
2019-05-02T12:55:12.920Z,32.93
2019-05-02T12:57:42.982Z,33.23
2019-05-02T13:00:13.476Z,32.80
2019-05-02T13:02:47.391Z,32.97
2019-05-02T13:05:18.061Z,33.83
2019-05-02T13:07:50.493Z,36.57
2019-05-02T13:10:24.271Z,36.60
2019-05-02T13:12:53.843Z,32.70
2019-05-02T13:15:23.529Z,32.80
2019-05-02T13:17:53.364Z,33.13
2019-05-02T13:20:29.165Z,34.30
2019-05-02T13:23:13.825Z,36.17
2019-05-02T13:25:43.445Z,33.10
2019-05-02T13:28:17.130Z,35.17
2019-05-02T13:30:46.704Z,38.67
2019-05-02T13:33:18.184Z,37.10
2019-05-02T13:35:52.060Z,32.10
2019-05-02T13:38:22.465Z,35.23
2019-05-02T13:40:51.997Z,34.43
2019-05-02T13:43:23.087Z,39.10
2019-05-02T13:46:02.251Z,36.40
2019-05-02T13:48:32.307Z,35.63
2019-05-02T13:51:03.907Z,36.40
2019-05-02T13:53:34.371Z,34.63
2019-05-02T13:56:23.852Z,38.57
2019-05-02T13:58:53.274Z,35.97
2019-05-02T14:01:23.130Z,39.13
2019-05-02T14:03:55.473Z,38.50
2019-05-02T14:06:30.257Z,39.93
2019-05-02T14:08:59.202Z,38.70
2019-05-02T14:11:43.492Z,42.30
2019-05-02T14:14:13.180Z,47.30
2019-05-02T14:16:42.635Z,43.37
2019-05-02T14:19:12.682Z,42.70
2019-05-02T14:21:42.392Z,39.57
2019-05-02T14:24:11.962Z,44.23
2019-05-02T14:26:43.429Z,44.60
2019-05-02T14:29:16.290Z,43.00
2019-05-02T14:31:44.273Z,41.53
2019-05-02T14:34:32.715Z,43.47
2019-05-02T14:37:02.147Z,43.73
2019-05-02T14:39:32.515Z,41.50
2019-05-02T14:42:03.724Z,46.60
2019-05-02T14:45:01.518Z,48.13
2019-05-02T14:47:04.640Z,41.37
2019-05-02T14:49:34.169Z,46.77
2019-05-02T14:52:07.051Z,48.97
2019-05-02T14:54:38.052Z,53.07
2019-05-02T14:57:21.498Z,51.10
2019-05-02T14:59:50.207Z,49.40
2019-05-02T15:02:22.874Z,50.53
2019-05-02T15:04:53.294Z,49.33
2019-05-02T15:07:26.567Z,53.20
2019-05-02T15:09:57.229Z,49.97
2019-05-02T15:12:25.105Z,53.20
2019-05-02T15:14:58.646Z,54.97
2019-05-02T15:17:27.993Z,52.77
2019-05-02T15:19:57.147Z,59.33
2019-05-02T15:22:35.843Z,58.93
2019-05-02T15:25:00.050Z,57.83
2019-05-02T15:27:40.197Z,60.97
2019-05-02T15:30:06.553Z,56.17
2019-05-02T15:32:37.281Z,56.23
2019-05-02T15:35:12.916Z,55.97
2019-05-02T15:37:42.686Z,55.43
2019-05-02T15:42:52.214Z,57.03
2019-05-02T15:45:23.761Z,51.23
2019-05-02T15:47:53.064Z,49.63
2019-05-02T15:50:25.395Z,51.60
2019-05-02T15:52:57.309Z,51.97
2019-05-02T15:55:26.808Z,51.53
2019-05-02T15:57:56.331Z,45.93
2019-05-02T16:00:27.868Z,48.27
2019-05-02T16:03:02.901Z,43.90
2019-05-02T16:05:31.957Z,49.77
2019-05-02T16:08:06.310Z,45.80
2019-05-02T16:10:38.474Z,44.00
2019-05-02T16:13:08.859Z,39.17
2019-05-02T16:15:40.540Z,47.33
2019-05-02T16:18:12.623Z,40.77
2019-05-02T16:20:47.274Z,41.97
2019-05-02T16:23:19.501Z,40.60
2019-05-02T16:25:46.659Z,37.37
2019-05-02T16:28:16.381Z,36.83
2019-05-02T16:30:47.686Z,35.97
2019-05-02T16:33:20.737Z,42.40
2019-05-02T16:35:53.494Z,32.50
2019-05-02T16:38:26.735Z,31.47
2019-05-02T16:40:55.928Z,28.90
2019-05-02T16:43:27.062Z,24.60
2019-05-02T16:45:56.594Z,27.43
2019-05-02T16:48:32.358Z,25.13
2019-05-02T16:50:58.801Z,25.00
2019-05-02T16:53:30.996Z,23.83
2019-05-02T16:56:05.512Z,24.93
2019-05-02T16:58:38.103Z,21.73
2019-05-02T17:01:07.939Z,22.37
2019-05-02T17:03:42.374Z,21.27
2019-05-02T17:06:12.373Z,22.53
2019-05-02T17:09:02.849Z,20.80
2019-05-02T17:11:38.253Z,22.13
2019-05-02T17:14:12.114Z,20.73
2019-05-02T17:16:42.136Z,21.80
2019-05-02T17:19:12.738Z,22.57
2019-05-02T17:21:53.960Z,24.23
2019-05-02T17:24:22.660Z,24.57
2019-05-02T17:26:54.093Z,24.07
2019-05-02T17:29:24.135Z,23.83
2019-05-02T17:31:59.148Z,22.17
2019-05-02T17:34:30.245Z,22.70
2019-05-02T17:37:03.231Z,24.53
2019-05-02T17:39:30.586Z,23.23
2019-05-02T17:42:00.943Z,24.47
2019-05-02T17:44:31.258Z,25.87
2019-05-02T17:47:02.405Z,24.37
2019-05-02T17:49:37.185Z,23.00
2019-05-02T17:52:20.985Z,25.53
2019-05-02T17:54:48.950Z,25.00
2019-05-02T17:57:21.549Z,25.17
2019-05-02T17:59:54.518Z,27.30
2019-05-02T18:02:23.945Z,25.90
2019-05-02T18:04:55.819Z,25.57
2019-05-02T18:07:31.671Z,27.83
2019-05-02T18:09:56.201Z,28.83
2019-05-02T18:12:25.716Z,28.23
2019-05-02T18:14:59.062Z,31.57
2019-05-02T18:17:27.557Z,30.87
2019-05-02T18:20:02.293Z,29.07
2019-05-02T18:22:34.214Z,27.40
2019-05-02T18:25:02.270Z,29.80
2019-05-02T18:27:32.046Z,25.10
2019-05-02T18:30:02.227Z,25.30
2019-05-02T18:32:33.792Z,26.83
2019-05-02T18:35:06.333Z,16.83
2019-05-02T18:37:42.839Z,11.43
2019-05-02T18:40:11.940Z,9.57
2019-05-02T18:42:42.414Z,8.80
2019-05-02T18:45:18.077Z,7.93
2019-05-02T18:47:47.660Z,8.37
2019-05-02T18:50:36.971Z,7.40
2019-05-02T18:53:08.547Z,8.03
2019-05-02T18:55:42.292Z,9.13
2019-05-02T18:58:13.071Z,8.83
2019-05-02T19:00:42.694Z,8.90
2019-05-02T19:03:16.974Z,9.40
2019-05-02T19:05:46.417Z,9.53
2019-05-02T19:08:15.145Z,11.00
2019-05-02T19:11:04.087Z,11.17
2019-05-02T19:13:19.442Z,11.20
2019-05-02T19:15:49.121Z,11.30
2019-05-02T19:18:20.250Z,12.00
2019-05-02T19:20:57.430Z,13.03
2019-05-02T19:23:24.491Z,11.60
2019-05-02T19:25:54.214Z,11.83
2019-05-02T19:28:34.692Z,12.13
2019-05-02T19:31:06.738Z,12.77
2019-05-02T19:33:37.310Z,11.70
2019-05-02T19:36:05.286Z,13.53
2019-05-02T19:38:34.971Z,13.80
2019-05-02T19:41:08.868Z,13.53
2019-05-02T19:43:40.310Z,13.10
2019-05-02T19:46:07.034Z,12.97
2019-05-02T19:48:37.410Z,13.40
2019-05-02T19:51:10.569Z,12.93
2019-05-02T19:53:39.116Z,12.47
2019-05-02T19:56:08.912Z,13.17
2019-05-02T19:58:42.794Z,13.80
2019-05-02T20:01:09.788Z,13.73
2019-05-02T20:03:39.327Z,13.70
2019-05-02T20:06:08.832Z,12.40
2019-05-02T20:08:38.358Z,13.87
2019-05-02T20:11:07.854Z,14.47
2019-05-02T20:13:37.445Z,13.13
2019-05-02T20:16:19.953Z,10.40
2019-05-02T20:18:49.758Z,8.00
2019-05-02T20:21:27.219Z,6.97
2019-05-02T20:23:52.107Z,5.00
2019-05-02T20:26:22.254Z,5.07
2019-05-02T20:28:52.786Z,5.30
2019-05-02T20:31:22.590Z,4.83
2019-05-02T20:33:53.104Z,5.40
2019-05-02T20:36:25.578Z,5.27
2019-05-02T20:38:53.837Z,5.37
2019-05-02T20:41:23.837Z,4.73
2019-05-02T20:43:53.307Z,4.00
2019-05-02T20:46:24.799Z,3.43
2019-05-02T20:48:54.250Z,2.70
2019-05-02T20:51:24.195Z,2.63
2019-05-02T20:53:53.650Z,2.60
2019-05-02T20:56:23.679Z,2.73
2019-05-02T20:58:54.769Z,3.33
2019-05-02T21:01:24.289Z,3.07
2019-05-02T21:03:53.822Z,4.00
2019-05-02T21:09:22.544Z,2.57
2019-05-02T21:11:53.699Z,2.60
2019-05-02T21:14:26.275Z,3.50
2019-05-02T21:16:55.788Z,2.90
2019-05-02T21:19:25.354Z,3.03
2019-05-02T21:21:56.558Z,3.10
2019-05-02T21:24:26.088Z,3.00
2019-05-02T21:26:57.142Z,2.90
2019-05-02T21:29:26.596Z,3.63
2019-05-02T21:31:56.104Z,2.77
2019-05-02T21:34:25.732Z,3.10
2019-05-02T21:36:55.269Z,3.10
2019-05-02T21:39:24.732Z,3.33
2019-05-02T21:41:54.252Z,3.23
2019-05-02T21:44:23.778Z,3.40
2019-05-02T21:46:53.286Z,3.37
2019-05-02T21:49:42.961Z,4.37
2019-05-02T21:52:25.348Z,7.30
2019-05-02T21:54:56.442Z,3.23
2019-05-02T21:57:27.422Z,3.67
2019-05-02T21:59:56.879Z,3.87
2019-05-02T22:02:26.550Z,3.60
2019-05-02T22:04:56.128Z,5.70
2019-05-02T22:07:25.658Z,3.73
2019-05-02T22:09:55.156Z,4.23
2019-05-02T22:12:25.052Z,4.13
2019-05-02T22:14:54.558Z,4.00
2019-05-02T22:17:24.134Z,4.33
2019-05-02T22:19:53.638Z,5.00
2019-05-02T22:22:23.098Z,4.63
2019-05-02T22:24:52.916Z,4.90
2019-05-02T22:27:22.661Z,4.70
2019-05-02T22:29:54.630Z,6.57
2019-05-02T22:32:23.416Z,5.50
2019-05-02T22:34:55.841Z,5.50
2019-05-02T22:37:25.319Z,4.90
2019-05-02T22:39:56.388Z,5.33
2019-05-02T22:42:25.916Z,4.60
2019-05-02T22:44:55.443Z,5.53
2019-05-02T22:47:25.213Z,5.93
2019-05-02T22:49:54.675Z,5.23
2019-05-02T22:52:24.116Z,5.03
2019-05-02T22:54:53.548Z,4.87
2019-05-02T22:57:23.007Z,4.67
2019-05-02T22:59:52.519Z,4.93
2019-05-02T23:02:22.142Z,5.17
2019-05-02T23:04:52.664Z,5.03
2019-05-02T23:07:22.594Z,5.53
2019-05-02T23:09:52.794Z,5.17
2019-05-02T23:12:24.899Z,5.10
2019-05-02T23:14:53.579Z,6.07
2019-05-02T23:17:23.303Z,4.70
2019-05-02T23:19:52.941Z,5.87
2019-05-02T23:22:24.834Z,5.07
2019-05-02T23:24:55.943Z,5.50
2019-05-02T23:27:31.442Z,5.70
2019-05-02T23:30:02.940Z,5.17
2019-05-02T23:32:34.092Z,5.17
2019-05-02T23:35:07.594Z,4.93
2019-05-02T23:37:37.198Z,5.37
2019-05-02T23:40:06.862Z,7.77
2019-05-02T23:42:36.808Z,4.87
2019-05-02T23:45:09.345Z,6.00
2019-05-02T23:47:38.842Z,5.93
2019-05-02T23:50:08.434Z,5.63
2019-05-02T23:52:38.651Z,6.43
2019-05-02T23:55:08.752Z,5.03
2019-05-02T23:57:38.252Z,5.20
